createdAt,value
2019-05-17T00:01:07.545Z,11.50
2019-05-17T00:03:36.545Z,11.50
2019-05-17T00:06:06.727Z,11.60
2019-05-17T00:08:34.933Z,11.60
2019-05-17T00:11:02.373Z,11.70
2019-05-17T00:13:31.209Z,11.60
2019-05-17T00:16:00.031Z,11.60
2019-05-17T00:18:29.607Z,11.60
2019-05-17T00:20:58.446Z,11.60
2019-05-17T00:23:27.281Z,11.50
2019-05-17T00:25:56.469Z,11.60
2019-05-17T00:28:26.954Z,11.50
2019-05-17T00:30:53.807Z,11.40
2019-05-17T00:33:22.642Z,11.50
2019-05-17T00:38:21.652Z,11.50
2019-05-17T00:40:50.512Z,11.40
2019-05-17T00:43:19.414Z,11.40
2019-05-17T00:45:48.305Z,11.50
2019-05-17T00:48:17.340Z,11.40
2019-05-17T00:50:52.407Z,11.40
2019-05-17T00:53:16.388Z,11.40
2019-05-17T00:55:43.605Z,11.40
2019-05-17T00:58:12.445Z,11.40
2019-05-17T01:00:41.275Z,11.40
2019-05-17T01:03:10.840Z,11.30
2019-05-17T01:05:39.678Z,11.30
2019-05-17T01:08:08.522Z,11.20
2019-05-17T01:10:37.368Z,11.30
2019-05-17T01:13:06.849Z,11.20
2019-05-17T01:15:36.972Z,11.30
2019-05-17T01:18:03.906Z,11.30
2019-05-17T01:20:33.478Z,11.30
2019-05-17T01:23:02.313Z,11.30
2019-05-17T01:25:31.143Z,11.20
2019-05-17T01:27:59.982Z,11.20
2019-05-17T01:30:29.560Z,11.20
2019-05-17T01:32:58.395Z,11.30
2019-05-17T01:35:27.232Z,11.30
2019-05-17T01:37:56.492Z,11.20
2019-05-17T01:40:26.466Z,11.30
2019-05-17T01:42:54.483Z,11.40
2019-05-17T01:45:23.316Z,11.40
2019-05-17T01:47:52.142Z,11.20
2019-05-17T01:50:21.732Z,11.20
2019-05-17T01:52:50.578Z,11.30
2019-05-17T01:55:19.414Z,11.30
2019-05-17T01:57:48.996Z,11.30
2019-05-17T02:00:17.893Z,11.20
2019-05-17T02:02:47.144Z,11.40
2019-05-17T02:05:17.325Z,11.40
2019-05-17T02:07:46.486Z,11.40
2019-05-17T02:10:13.227Z,11.40
2019-05-17T02:12:42.074Z,11.40
2019-05-17T02:15:10.921Z,11.40
2019-05-17T02:17:39.772Z,11.30
2019-05-17T02:20:08.650Z,11.30
2019-05-17T02:22:37.469Z,11.20
2019-05-17T02:25:07.330Z,11.40
2019-05-17T02:27:41.042Z,11.30
2019-05-17T02:30:06.764Z,11.30
2019-05-17T02:32:36.323Z,11.20
2019-05-17T02:35:05.179Z,11.20
2019-05-17T02:37:34.035Z,11.30
2019-05-17T02:40:07.997Z,11.30
2019-05-17T02:42:33.337Z,11.20
2019-05-17T02:45:03.071Z,11.30
2019-05-17T02:47:29.456Z,11.20
2019-05-17T02:49:58.295Z,11.20
2019-05-17T02:52:27.146Z,11.20
2019-05-17T02:54:56.001Z,11.20
2019-05-17T02:57:24.834Z,11.20
2019-05-17T02:59:53.685Z,11.10
2019-05-17T03:02:27.479Z,11.10
2019-05-17T03:04:52.708Z,11.00
2019-05-17T03:07:23.190Z,11.00
2019-05-17T03:09:49.796Z,11.10
2019-05-17T03:12:18.641Z,11.00
2019-05-17T03:14:47.480Z,11.10
2019-05-17T03:17:16.339Z,10.90
2019-05-17T03:19:45.170Z,10.90
2019-05-17T03:22:14.747Z,10.90
2019-05-17T03:24:44.078Z,10.70
2019-05-17T03:27:13.458Z,10.80
2019-05-17T03:29:42.522Z,10.80
2019-05-17T03:32:16.675Z,10.90
2019-05-17T03:34:38.969Z,10.80
2019-05-17T03:37:08.018Z,10.70
2019-05-17T03:39:36.694Z,10.70
2019-05-17T03:42:05.544Z,10.80
2019-05-17T03:44:34.380Z,10.70
2019-05-17T03:47:03.232Z,10.80
2019-05-17T03:49:33.324Z,10.70
2019-05-17T03:52:02.750Z,10.80
2019-05-17T03:54:32.407Z,10.80
2019-05-17T03:57:02.656Z,10.70
2019-05-17T03:59:28.242Z,10.70
2019-05-17T04:01:57.109Z,10.70
2019-05-17T04:04:25.983Z,10.70
2019-05-17T04:06:54.826Z,10.60
2019-05-17T04:09:23.666Z,10.60
2019-05-17T04:11:53.613Z,10.70
2019-05-17T04:14:22.511Z,10.70
2019-05-17T04:16:53.367Z,10.70
2019-05-17T04:19:19.064Z,10.60
2019-05-17T04:21:47.895Z,10.70
2019-05-17T04:24:16.772Z,10.60
2019-05-17T04:26:45.626Z,10.80
2019-05-17T04:29:14.468Z,10.70
2019-05-17T04:31:44.066Z,10.70
2019-05-17T04:34:13.596Z,10.70
2019-05-17T04:36:43.152Z,10.70
2019-05-17T04:39:13.363Z,10.70
2019-05-17T04:41:46.962Z,10.80
2019-05-17T04:44:09.045Z,10.80
2019-05-17T04:46:37.895Z,10.80
2019-05-17T04:49:06.734Z,10.70
2019-05-17T04:51:35.583Z,10.80
2019-05-17T04:54:04.429Z,10.90
2019-05-17T04:56:33.671Z,11.00
2019-05-17T04:59:03.881Z,11.00
2019-05-17T05:01:33.224Z,11.10
2019-05-17T05:04:03.593Z,11.10
2019-05-17T05:06:32.877Z,11.00
2019-05-17T05:09:02.318Z,10.90
2019-05-17T05:11:28.469Z,11.10
2019-05-17T05:13:57.299Z,11.00
2019-05-17T05:16:26.124Z,11.00
2019-05-17T05:18:54.959Z,11.00
2019-05-17T05:21:23.789Z,10.90
2019-05-17T05:23:52.622Z,11.10
2019-05-17T05:26:22.359Z,11.10
2019-05-17T05:28:52.854Z,11.20
2019-05-17T05:31:22.635Z,11.20
2019-05-17T05:33:52.141Z,11.20
2019-05-17T05:36:19.145Z,11.20
2019-05-17T05:38:48.002Z,11.20
2019-05-17T05:41:16.850Z,11.20
2019-05-17T05:43:45.725Z,11.40
2019-05-17T05:46:14.564Z,11.40
2019-05-17T05:48:43.413Z,11.50
2019-05-17T05:51:13.755Z,11.60
2019-05-17T05:53:41.903Z,11.70
2019-05-17T05:56:13.055Z,11.70
2019-05-17T05:58:38.860Z,11.80
2019-05-17T06:01:07.696Z,12.10
2019-05-17T06:03:37.301Z,12.00
2019-05-17T06:08:35.568Z,12.40
2019-05-17T06:11:04.398Z,12.60
2019-05-17T06:13:33.987Z,12.60
2019-05-17T06:16:02.986Z,12.70
2019-05-17T06:18:31.917Z,12.60
2019-05-17T06:21:02.722Z,12.80
2019-05-17T06:23:31.495Z,12.80
2019-05-17T06:25:58.270Z,12.90
2019-05-17T06:28:27.186Z,12.90
2019-05-17T06:30:56.275Z,13.00
2019-05-17T06:33:30.638Z,13.00
2019-05-17T06:35:53.990Z,13.00
2019-05-17T06:38:22.863Z,12.90
2019-05-17T06:40:52.310Z,12.90
2019-05-17T06:43:21.521Z,12.90
2019-05-17T06:45:52.231Z,12.90
2019-05-17T06:48:19.033Z,12.90
2019-05-17T06:50:47.875Z,12.90
2019-05-17T06:53:16.733Z,12.90
2019-05-17T06:55:45.588Z,12.90
2019-05-17T06:58:14.424Z,13.10
2019-05-17T07:00:44.041Z,13.30
2019-05-17T07:03:13.646Z,13.30
2019-05-17T07:05:44.030Z,13.60
2019-05-17T07:08:12.886Z,13.70
2019-05-17T07:10:41.731Z,13.80
2019-05-17T07:13:10.945Z,13.90
2019-05-17T07:15:47.405Z,13.90
2019-05-17T07:18:10.366Z,13.90
2019-05-17T07:20:39.533Z,14.10
2019-05-17T07:23:07.513Z,14.00
2019-05-17T07:25:36.850Z,14.00
2019-05-17T07:28:05.704Z,14.10
2019-05-17T07:30:35.527Z,14.10
2019-05-17T07:33:03.884Z,14.20
2019-05-17T07:35:32.689Z,14.20
2019-05-17T07:38:02.309Z,14.20
2019-05-17T07:40:31.133Z,14.30
2019-05-17T07:43:09.807Z,14.40
2019-05-17T07:45:29.518Z,14.50
2019-05-17T07:48:00.009Z,14.60
2019-05-17T07:50:26.522Z,14.50
2019-05-17T07:52:55.350Z,14.60
2019-05-17T07:55:24.201Z,14.60
2019-05-17T07:57:53.061Z,14.80
2019-05-17T08:00:21.918Z,14.90
2019-05-17T08:02:50.755Z,14.90
2019-05-17T08:05:25.619Z,14.90
2019-05-17T08:07:55.212Z,15.00
2019-05-17T08:10:24.402Z,15.10
2019-05-17T08:12:53.235Z,15.20
2019-05-17T08:15:22.190Z,15.30
2019-05-17T08:17:51.066Z,15.40
2019-05-17T08:20:20.382Z,15.50
2019-05-17T08:22:50.219Z,15.60
2019-05-17T08:25:19.891Z,15.70
2019-05-17T08:27:46.443Z,15.90
2019-05-17T08:30:15.294Z,15.90
2019-05-17T08:32:44.124Z,15.90
2019-05-17T08:35:12.981Z,15.90
2019-05-17T08:37:42.683Z,16.00
2019-05-17T08:40:14.908Z,16.20
2019-05-17T08:42:40.779Z,16.20
2019-05-17T08:45:09.660Z,16.10
2019-05-17T08:47:39.745Z,16.20
2019-05-17T08:50:06.858Z,16.10
2019-05-17T08:52:36.154Z,16.10
2019-05-17T08:55:05.000Z,16.30
2019-05-17T08:57:33.831Z,16.40
2019-05-17T09:00:02.679Z,16.30
2019-05-17T09:02:31.514Z,16.30
2019-05-17T09:05:00.679Z,16.40
2019-05-17T09:07:29.626Z,16.60
2019-05-17T09:09:58.060Z,16.90
2019-05-17T09:12:26.891Z,17.00
2019-05-17T09:14:56.480Z,17.00
2019-05-17T09:17:25.331Z,17.20
2019-05-17T09:19:54.494Z,17.30
2019-05-17T09:22:23.753Z,17.20
2019-05-17T09:24:52.851Z,17.20
2019-05-17T09:27:21.674Z,17.10
2019-05-17T09:29:50.567Z,17.00
2019-05-17T09:32:20.091Z,16.90
2019-05-17T09:34:49.818Z,17.00
2019-05-17T09:37:19.872Z,17.00
2019-05-17T09:39:46.725Z,17.00
2019-05-17T09:42:15.546Z,17.10
2019-05-17T09:44:44.385Z,16.90
2019-05-17T09:47:13.267Z,17.10
2019-05-17T09:49:42.070Z,17.40
2019-05-17T09:52:10.902Z,17.50
2019-05-17T09:54:45.100Z,17.60
2019-05-17T09:57:09.917Z,17.70
2019-05-17T09:59:40.330Z,17.60
2019-05-17T10:02:09.404Z,17.70
2019-05-17T10:04:35.897Z,17.90
2019-05-17T10:07:04.736Z,18.00
2019-05-17T10:09:33.556Z,18.20
2019-05-17T10:12:02.919Z,18.30
2019-05-17T10:14:31.629Z,18.60
2019-05-17T10:17:00.486Z,18.70
2019-05-17T10:19:30.097Z,18.70
2019-05-17T10:21:59.841Z,18.70
2019-05-17T10:24:37.977Z,18.70
2019-05-17T10:26:59.403Z,18.80
2019-05-17T10:29:26.595Z,19.00
2019-05-17T10:31:56.169Z,18.60
2019-05-17T10:34:24.994Z,18.70
2019-05-17T10:36:53.875Z,18.80
2019-05-17T10:39:22.710Z,18.90
2019-05-17T10:41:51.549Z,19.00
2019-05-17T10:44:21.149Z,19.10
2019-05-17T10:46:49.982Z,19.30
2019-05-17T10:49:20.235Z,19.30
2019-05-17T10:51:49.380Z,19.30
2019-05-17T10:54:20.432Z,19.40
2019-05-17T10:56:46.868Z,19.50
2019-05-17T10:59:15.878Z,19.50
2019-05-17T11:01:44.719Z,19.60
2019-05-17T11:04:14.334Z,19.80
2019-05-17T11:06:43.182Z,20.00
2019-05-17T11:09:12.029Z,19.90
2019-05-17T11:11:40.899Z,19.90
2019-05-17T11:14:09.744Z,19.90
2019-05-17T11:16:38.624Z,20.00
2019-05-17T11:19:08.858Z,20.20
2019-05-17T11:21:37.030Z,20.20
2019-05-17T11:24:05.937Z,20.20
2019-05-17T11:26:34.735Z,20.30
2019-05-17T11:29:03.576Z,20.40
2019-05-17T11:31:33.424Z,20.50
2019-05-17T11:34:02.287Z,20.50
2019-05-17T11:36:31.116Z,20.30
2019-05-17T11:38:59.997Z,20.20
2019-05-17T11:41:28.793Z,20.40
2019-05-17T11:43:57.622Z,20.50
2019-05-17T11:46:35.678Z,20.50
2019-05-17T11:48:55.301Z,20.60
2019-05-17T11:51:26.947Z,20.70
2019-05-17T11:53:52.963Z,20.80
2019-05-17T11:56:22.645Z,20.90
2019-05-17T11:58:51.469Z,21.00
2019-05-17T12:01:21.103Z,20.80
2019-05-17T12:03:49.987Z,21.00
2019-05-17T12:06:18.827Z,20.60
2019-05-17T12:08:47.669Z,20.40
2019-05-17T12:11:16.522Z,20.60
2019-05-17T12:13:45.363Z,20.70
2019-05-17T12:16:14.204Z,20.90
2019-05-17T12:18:43.061Z,21.00
2019-05-17T12:21:15.180Z,21.10
2019-05-17T12:23:44.033Z,21.40
2019-05-17T12:26:12.876Z,21.30
2019-05-17T12:28:41.701Z,21.20
2019-05-17T12:31:10.541Z,21.30
2019-05-17T12:33:39.480Z,21.20
2019-05-17T12:36:08.337Z,21.30
2019-05-17T12:38:37.201Z,21.30
2019-05-17T12:41:06.035Z,21.70
2019-05-17T12:43:34.891Z,22.00
2019-05-17T12:46:03.764Z,21.90
2019-05-17T12:48:32.611Z,21.50
2019-05-17T12:51:01.497Z,21.60
2019-05-17T12:53:30.338Z,21.80
2019-05-17T12:55:59.187Z,21.90
2019-05-17T12:58:28.034Z,22.00
2019-05-17T13:00:56.866Z,22.10
2019-05-17T13:03:25.708Z,22.00
2019-05-17T13:05:55.421Z,22.20
2019-05-17T13:08:24.250Z,22.80
2019-05-17T13:10:53.717Z,22.40
2019-05-17T13:13:22.559Z,22.30
2019-05-17T13:15:51.395Z,22.60
2019-05-17T13:18:20.247Z,22.80
2019-05-17T13:20:49.091Z,23.20
2019-05-17T13:23:17.935Z,23.50
2019-05-17T13:25:47.527Z,23.20
2019-05-17T13:28:17.107Z,23.30
2019-05-17T13:30:45.947Z,23.40
2019-05-17T13:33:14.790Z,23.60
2019-05-17T13:35:43.626Z,23.80
2019-05-17T13:38:13.433Z,23.60
2019-05-17T13:40:42.226Z,23.70
2019-05-17T13:43:11.081Z,23.80
2019-05-17T13:45:39.921Z,23.90
2019-05-17T13:48:08.767Z,23.70
2019-05-17T13:50:38.342Z,23.40
2019-05-17T13:53:07.192Z,23.70
2019-05-17T13:55:36.026Z,23.60
2019-05-17T13:58:04.853Z,23.30
2019-05-17T14:00:33.724Z,23.10
2019-05-17T14:03:02.561Z,23.30
2019-05-17T14:05:31.401Z,23.30
2019-05-17T14:08:00.283Z,23.50
2019-05-17T14:10:32.123Z,23.40
2019-05-17T14:12:58.682Z,23.50
2019-05-17T14:15:28.350Z,23.90
2019-05-17T14:17:57.185Z,24.10
2019-05-17T14:20:26.030Z,24.30
2019-05-17T14:22:54.861Z,24.30
2019-05-17T14:27:53.214Z,24.50
2019-05-17T14:30:21.972Z,24.30
2019-05-17T14:32:50.836Z,24.50
2019-05-17T14:35:19.673Z,24.70
2019-05-17T14:37:48.509Z,24.90
2019-05-17T14:40:17.356Z,25.00
2019-05-17T14:42:46.208Z,24.90
2019-05-17T14:45:15.799Z,25.10
2019-05-17T14:47:44.633Z,25.40
2019-05-17T14:50:13.476Z,24.80
2019-05-17T14:52:42.307Z,24.70
2019-05-17T14:55:11.158Z,24.70
2019-05-17T14:57:42.955Z,24.90
2019-05-17T15:00:09.618Z,24.90
2019-05-17T15:02:38.407Z,24.70
2019-05-17T15:05:07.238Z,24.90
2019-05-17T15:07:36.119Z,24.90
2019-05-17T15:10:04.959Z,25.00
2019-05-17T15:12:33.768Z,25.10
2019-05-17T15:15:02.594Z,25.10
2019-05-17T15:17:34.912Z,25.30
2019-05-17T15:20:00.994Z,25.00
2019-05-17T15:22:30.570Z,24.80
2019-05-17T15:24:59.407Z,24.30
2019-05-17T15:27:28.261Z,23.80
2019-05-17T15:29:57.109Z,23.80
2019-05-17T15:32:25.982Z,23.60
2019-05-17T15:34:54.819Z,23.40
2019-05-17T15:37:23.667Z,23.20
2019-05-17T15:39:53.249Z,23.00
2019-05-17T15:42:22.115Z,23.00
2019-05-17T15:44:50.957Z,22.90
2019-05-17T15:47:19.803Z,23.10
2019-05-17T15:49:49.407Z,23.10
2019-05-17T15:52:18.250Z,23.00
2019-05-17T15:54:48.715Z,22.80
2019-05-17T15:57:15.919Z,22.70
2019-05-17T15:59:44.759Z,22.70
2019-05-17T16:02:13.615Z,22.90
2019-05-17T16:04:42.440Z,22.90
2019-05-17T16:07:12.036Z,23.30
2019-05-17T16:09:40.900Z,23.60
2019-05-17T16:12:09.722Z,23.80
2019-05-17T16:14:39.325Z,23.80
2019-05-17T16:17:08.193Z,23.90
2019-05-17T16:19:37.020Z,24.10
2019-05-17T16:22:06.592Z,24.20
2019-05-17T16:24:35.449Z,24.20
2019-05-17T16:27:04.295Z,24.10
2019-05-17T16:29:33.871Z,24.00
2019-05-17T16:32:02.718Z,24.00
2019-05-17T16:34:31.564Z,23.70
2019-05-17T16:37:00.457Z,23.70
2019-05-17T16:41:58.799Z,23.50
2019-05-17T16:44:27.621Z,23.50
2019-05-17T16:46:56.447Z,23.40
2019-05-17T16:49:28.494Z,23.30
2019-05-17T16:51:54.858Z,22.80
2019-05-17T16:54:24.114Z,22.80
2019-05-17T16:56:52.972Z,22.80
2019-05-17T16:59:21.801Z,22.80
2019-05-17T17:01:50.661Z,22.60
2019-05-17T17:04:19.480Z,22.60
2019-05-17T17:06:48.325Z,22.60
2019-05-17T17:09:17.159Z,22.50
2019-05-17T17:11:46.016Z,22.70
2019-05-17T17:14:14.850Z,22.70
2019-05-17T17:16:44.421Z,22.80
2019-05-17T17:19:13.276Z,22.80
2019-05-17T17:21:42.117Z,22.60
2019-05-17T17:24:11.010Z,22.60
2019-05-17T17:26:40.575Z,22.50
2019-05-17T17:29:09.417Z,22.40
2019-05-17T17:31:39.017Z,22.30
2019-05-17T17:34:07.869Z,22.30
2019-05-17T17:36:36.698Z,22.20
2019-05-17T17:39:06.301Z,22.10
2019-05-17T17:44:04.642Z,21.90
2019-05-17T17:46:33.481Z,21.70
2019-05-17T17:49:03.064Z,21.70
2019-05-17T17:51:31.928Z,21.70
2019-05-17T17:54:00.811Z,21.50
2019-05-17T17:56:30.399Z,21.50
2019-05-17T17:58:59.201Z,21.50
2019-05-17T18:01:28.045Z,21.40
2019-05-17T18:03:56.879Z,21.40
2019-05-17T18:06:25.738Z,21.30
2019-05-17T18:08:54.661Z,21.00
2019-05-17T18:11:23.409Z,20.70
2019-05-17T18:13:52.291Z,20.60
2019-05-17T18:16:21.153Z,20.50
2019-05-17T18:18:49.985Z,20.50
2019-05-17T18:21:18.845Z,20.50
2019-05-17T18:23:47.665Z,20.40
2019-05-17T18:26:17.254Z,20.40
2019-05-17T18:28:46.107Z,20.30
2019-05-17T18:31:14.965Z,20.20
2019-05-17T18:33:43.806Z,20.10
2019-05-17T18:36:12.630Z,20.20
2019-05-17T18:38:42.220Z,20.10
2019-05-17T18:41:11.065Z,20.10
2019-05-17T18:43:39.923Z,20.00
2019-05-17T18:46:09.511Z,19.90
2019-05-17T18:48:38.355Z,19.70
2019-05-17T18:51:07.207Z,19.60
2019-05-17T18:53:36.811Z,19.50
2019-05-17T18:56:06.409Z,19.40
2019-05-17T18:58:39.211Z,19.30
2019-05-17T19:01:04.939Z,19.20
2019-05-17T19:03:33.773Z,19.20
2019-05-17T19:06:02.610Z,19.20
2019-05-17T19:08:31.459Z,19.20
2019-05-17T19:11:00.334Z,19.30
2019-05-17T19:13:29.175Z,19.30
2019-05-17T19:15:58.035Z,19.20
2019-05-17T19:18:27.618Z,19.10
2019-05-17T19:20:56.477Z,19.10
2019-05-17T19:23:26.006Z,19.10
2019-05-17T19:25:54.158Z,19.00
2019-05-17T19:28:23.024Z,19.00
2019-05-17T19:30:51.890Z,18.90
2019-05-17T19:33:20.731Z,18.80
2019-05-17T19:35:49.576Z,18.60
2019-05-17T19:38:19.224Z,18.50
2019-05-17T19:40:48.792Z,18.60
2019-05-17T19:43:17.670Z,18.60
2019-05-17T19:45:46.482Z,18.60
2019-05-17T19:48:15.353Z,18.60
2019-05-17T19:50:44.209Z,18.70
2019-05-17T19:53:13.039Z,18.60
2019-05-17T19:55:42.635Z,18.50
2019-05-17T19:58:12.242Z,18.50
2019-05-17T20:00:41.080Z,18.60
2019-05-17T20:03:09.914Z,18.50
2019-05-17T20:05:38.777Z,18.50
2019-05-17T20:08:07.618Z,18.50
2019-05-17T20:10:36.459Z,18.40
2019-05-17T20:13:05.344Z,18.40
2019-05-17T20:15:35.039Z,18.30
2019-05-17T20:18:03.005Z,18.30
2019-05-17T20:20:31.812Z,18.10
2019-05-17T20:23:00.670Z,18.10
2019-05-17T20:25:29.512Z,18.10
2019-05-17T20:27:58.369Z,18.00
2019-05-17T20:30:27.206Z,17.90
2019-05-17T20:32:56.057Z,17.80
2019-05-17T20:35:25.646Z,17.80
2019-05-17T20:37:54.487Z,17.80
2019-05-17T20:40:24.064Z,17.60
2019-05-17T20:42:52.932Z,17.60
2019-05-17T20:45:32.584Z,17.60
2019-05-17T20:47:51.296Z,17.50
2019-05-17T20:50:20.139Z,17.40
2019-05-17T20:52:48.989Z,17.40
2019-05-17T20:55:17.822Z,17.40
2019-05-17T20:57:46.697Z,17.30
2019-05-17T21:00:15.546Z,17.30
2019-05-17T21:05:13.815Z,17.20
2019-05-17T21:07:43.431Z,17.20
2019-05-17T21:10:13.017Z,17.20
2019-05-17T21:12:41.908Z,17.20
2019-05-17T21:15:10.759Z,17.10
2019-05-17T21:17:39.677Z,17.10
2019-05-17T21:20:08.501Z,17.10
2019-05-17T21:22:38.098Z,17.00
2019-05-17T21:25:07.688Z,17.00
2019-05-17T21:27:36.562Z,17.10
2019-05-17T21:30:05.393Z,17.10
2019-05-17T21:32:34.978Z,17.10
2019-05-17T21:35:03.870Z,17.10
2019-05-17T21:37:32.700Z,16.90
2019-05-17T21:42:40.511Z,16.90
2019-05-17T21:45:09.320Z,17.00
2019-05-17T21:47:38.158Z,16.90
2019-05-17T21:50:07.770Z,16.90
2019-05-17T21:52:37.379Z,16.90
2019-05-17T21:55:06.970Z,16.70
2019-05-17T21:57:35.823Z,16.80
2019-05-17T22:00:06.632Z,16.80
2019-05-17T22:02:35.474Z,16.70
2019-05-17T22:05:04.299Z,16.80
2019-05-17T22:07:33.134Z,16.70
2019-05-17T22:10:01.958Z,16.70
2019-05-17T22:12:31.524Z,16.60
2019-05-17T22:15:00.353Z,16.60
2019-05-17T22:17:29.948Z,16.50
2019-05-17T22:19:58.801Z,16.60
2019-05-17T22:22:27.634Z,16.60
2019-05-17T22:24:57.220Z,16.50
2019-05-17T22:27:26.058Z,16.60
2019-05-17T22:29:54.899Z,16.50
2019-05-17T22:32:23.728Z,16.30
2019-05-17T22:34:52.595Z,16.30
2019-05-17T22:37:21.483Z,16.20
2019-05-17T22:42:19.754Z,16.10
2019-05-17T22:44:48.592Z,16.10
2019-05-17T22:47:17.437Z,16.10
2019-05-17T22:49:46.299Z,16.00
2019-05-17T22:52:15.116Z,15.90
2019-05-17T22:54:43.952Z,15.80
2019-05-17T22:57:12.792Z,15.80
2019-05-17T22:59:41.634Z,15.80
2019-05-17T23:02:10.463Z,15.80
2019-05-17T23:04:39.305Z,15.70
2019-05-17T23:07:08.137Z,15.70
2019-05-17T23:09:36.964Z,15.60
2019-05-17T23:12:06.542Z,15.60
2019-05-17T23:14:35.374Z,15.60
2019-05-17T23:17:04.207Z,15.60
2019-05-17T23:19:33.050Z,15.60
2019-05-17T23:22:01.903Z,15.60
2019-05-17T23:24:30.759Z,15.50
2019-05-17T23:26:59.605Z,15.60
2019-05-17T23:29:28.448Z,15.50
2019-05-17T23:31:57.284Z,15.60
2019-05-17T23:34:26.867Z,15.60
2019-05-17T23:36:55.707Z,15.60
2019-05-17T23:39:24.563Z,15.70
2019-05-17T23:41:53.386Z,15.60
2019-05-17T23:44:22.227Z,15.50
2019-05-17T23:47:04.770Z,15.50
2019-05-17T23:49:19.947Z,15.50
2019-05-17T23:51:48.805Z,15.40
2019-05-17T23:54:17.679Z,15.40
2019-05-17T23:56:46.507Z,15.40
2019-05-17T23:59:15.366Z,15.40
